sensor_id;sensor_type;location;lat;lon;timestamp;P1;P2;P0
55043;PMS5003;54902;50.420;18.854;2023-06-24T00:00:08;3;3;3
55043;PMS5003;54902;50.420;18.854;2023-06-24T00:00:42;3;3;3
55043;PMS5003;54902;50.420;18.854;2023-06-24T00:01:13;3;3;3
55043;PMS5003;54902;50.420;18.854;2023-06-24T00:01:45;3;3;3
55043;PMS5003;54902;50.420;18.854;2023-06-24T00:02:16;3;3;3
55043;PMS5003;54902;50.420;18.854;2023-06-24T00:02:47;3;3;3
55043;PMS5003;54902;50.420;18.854;2023-06-24T00:03:18;3;3;3
55043;PMS5003;54902;50.420;18.854;2023-06-24T00:03:49;3;3;3
55043;PMS5003;54902;50.420;18.854;2023-06-24T00:04:23;3;3;3
55043;PMS5003;54902;50.420;18.854;2023-06-24T00:04:54;3;3;3
55043;PMS5003;54902;50.420;18.854;2023-06-24T00:05:31;3;3;3
55043;PMS5003;54902;50.420;18.854;2023-06-24T00:06:02;3;3;3
55043;PMS5003;54902;50.420;18.854;2023-06-24T00:06:33;3;3;3
55043;PMS5003;54902;50.420;18.854;2023-06-24T00:07:04;3;3;3
55043;PMS5003;54902;50.420;18.854;2023-06-24T00:07:36;3;3;3
55043;PMS5003;54902;50.420;18.854;2023-06-24T00:08:18;3;3;3
55043;PMS5003;54902;50.420;18.854;2023-06-24T00:08:51;3;3;3
55043;PMS5003;54902;50.420;18.854;2023-06-24T00:09:30;3;3;3
55043;PMS5003;54902;50.420;18.854;2023-06-24T00:10:01;4;4;4
55043;PMS5003;54902;50.420;18.854;2023-06-24T00:10:34;4;4;4
55043;PMS5003;54902;50.420;18.854;2023-06-24T00:11:05;4;4;4
55043;PMS5003;54902;50.420;18.854;2023-06-24T00:11:36;8;8;7
55043;PMS5003;54902;50.420;18.854;2023-06-24T00:12:07;8;8;7
55043;PMS5003;54902;50.420;18.854;2023-06-24T00:12:38;8;8;7
55043;PMS5003;54902;50.420;18.854;2023-06-24T00:13:11;8;8;7
55043;PMS5003;54902;50.420;18.854;2023-06-24T00:13:42;8;8;7
55043;PMS5003;54902;50.420;18.854;2023-06-24T00:14:14;8;8;7
55043;PMS5003;54902;50.420;18.854;2023-06-24T00:14:48;8;8;7
55043;PMS5003;54902;50.420;18.854;2023-06-24T00:15:20;8;8;7
55043;PMS5003;54902;50.420;18.854;2023-06-24T00:15:51;8;8;7
55043;PMS5003;54902;50.420;18.854;2023-06-24T00:16:22;8;8;7
55043;PMS5003;54902;50.420;18.854;2023-06-24T00:16:56;9;9;9
55043;PMS5003;54902;50.420;18.854;2023-06-24T00:17:27;9;9;9
55043;PMS5003;54902;50.420;18.854;2023-06-24T00:17:58;9;9;9
55043;PMS5003;54902;50.420;18.854;2023-06-24T00:18:36;9;9;9
55043;PMS5003;54902;50.420;18.854;2023-06-24T00:19:11;9;9;9
55043;PMS5003;54902;50.420;18.854;2023-06-24T00:19:42;9;9;9
55043;PMS5003;54902;50.420;18.854;2023-06-24T00:20:14;9;9;9
55043;PMS5003;54902;50.420;18.854;2023-06-24T00:20:50;9;9;9
55043;PMS5003;54902;50.420;18.854;2023-06-24T00:21:21;9;9;9
55043;PMS5003;54902;50.420;18.854;2023-06-24T00:21:58;8;8;8
55043;PMS5003;54902;50.420;18.854;2023-06-24T00:22:33;3;3;2
55043;PMS5003;54902;50.420;18.854;2023-06-24T00:23:05;3;3;2
55043;PMS5003;54902;50.420;18.854;2023-06-24T00:23:36;3;3;2
55043;PMS5003;54902;50.420;18.854;2023-06-24T00:24:07;3;3;2
55043;PMS5003;54902;50.420;18.854;2023-06-24T00:24:39;3;3;2
55043;PMS5003;54902;50.420;18.854;2023-06-24T00:25:13;3;3;2
55043;PMS5003;54902;50.420;18.854;2023-06-24T00:25:45;3;3;2
55043;PMS5003;54902;50.420;18.854;2023-06-24T00:26:15;3;3;2
55043;PMS5003;54902;50.420;18.854;2023-06-24T00:26:47;3;3;2
55043;PMS5003;54902;50.420;18.854;2023-06-24T00:27:18;3;3;2
55043;PMS5003;54902;50.420;18.854;2023-06-24T00:27:49;4;4;3
55043;PMS5003;54902;50.420;18.854;2023-06-24T00:28:20;4;4;3
55043;PMS5003;54902;50.420;18.854;2023-06-24T00:28:52;4;4;3
55043;PMS5003;54902;50.420;18.854;2023-06-24T00:29:23;4;4;3
55043;PMS5003;54902;50.420;18.854;2023-06-24T00:29:54;4;4;3
55043;PMS5003;54902;50.420;18.854;2023-06-24T00:30:26;4;4;3
55043;PMS5003;54902;50.420;18.854;2023-06-24T00:30:57;4;4;4
55043;PMS5003;54902;50.420;18.854;2023-06-24T00:31:29;4;4;4
55043;PMS5003;54902;50.420;18.854;2023-06-24T00:32:00;4;4;4
55043;PMS5003;54902;50.420;18.854;2023-06-24T00:32:31;4;4;4
55043;PMS5003;54902;50.420;18.854;2023-06-24T00:33:02;7;7;6
55043;PMS5003;54902;50.420;18.854;2023-06-24T00:33:33;7;7;6
55043;PMS5003;54902;50.420;18.854;2023-06-24T00:34:06;7;7;6
55043;PMS5003;54902;50.420;18.854;2023-06-24T00:34:38;7;7;6
55043;PMS5003;54902;50.420;18.854;2023-06-24T00:35:14;7;7;6
55043;PMS5003;54902;50.420;18.854;2023-06-24T00:35:45;6;6;5
55043;PMS5003;54902;50.420;18.854;2023-06-24T00:36:17;6;6;5
55043;PMS5003;54902;50.420;18.854;2023-06-24T00:36:48;6;6;5
55043;PMS5003;54902;50.420;18.854;2023-06-24T00:37:19;6;6;5
55043;PMS5003;54902;50.420;18.854;2023-06-24T00:37:50;6;6;5
55043;PMS5003;54902;50.420;18.854;2023-06-24T00:38:21;5;5;5
55043;PMS5003;54902;50.420;18.854;2023-06-24T00:38:52;5;5;5
55043;PMS5003;54902;50.420;18.854;2023-06-24T00:39:22;5;5;5
55043;PMS5003;54902;50.420;18.854;2023-06-24T00:39:54;5;5;5
55043;PMS5003;54902;50.420;18.854;2023-06-24T00:40:25;5;5;5
55043;PMS5003;54902;50.420;18.854;2023-06-24T00:40:56;5;5;5
55043;PMS5003;54902;50.420;18.854;2023-06-24T00:41:27;5;5;5
55043;PMS5003;54902;50.420;18.854;2023-06-24T00:41:58;5;5;5
55043;PMS5003;54902;50.420;18.854;2023-06-24T00:42:29;5;5;5
55043;PMS5003;54902;50.420;18.854;2023-06-24T00:43:00;5;5;5
55043;PMS5003;54902;50.420;18.854;2023-06-24T00:43:32;6;6;6
55043;PMS5003;54902;50.420;18.854;2023-06-24T00:44:03;6;6;6
55043;PMS5003;54902;50.420;18.854;2023-06-24T00:44:35;6;6;6
55043;PMS5003;54902;50.420;18.854;2023-06-24T00:45:09;6;6;6
55043;PMS5003;54902;50.420;18.854;2023-06-24T00:45:41;6;6;6
55043;PMS5003;54902;50.420;18.854;2023-06-24T00:46:12;6;6;6
55043;PMS5003;54902;50.420;18.854;2023-06-24T00:46:45;6;6;6
55043;PMS5003;54902;50.420;18.854;2023-06-24T00:47:16;6;6;6
55043;PMS5003;54902;50.420;18.854;2023-06-24T00:47:47;6;6;6
55043;PMS5003;54902;50.420;18.854;2023-06-24T00:48:19;6;6;6
55043;PMS5003;54902;50.420;18.854;2023-06-24T00:48:52;6;6;6
55043;PMS5003;54902;50.420;18.854;2023-06-24T00:49:24;6;6;6
55043;PMS5003;54902;50.420;18.854;2023-06-24T00:49:54;6;6;6
55043;PMS5003;54902;50.420;18.854;2023-06-24T00:50:27;6;6;6
55043;PMS5003;54902;50.420;18.854;2023-06-24T00:50:58;6;6;6
55043;PMS5003;54902;50.420;18.854;2023-06-24T00:51:29;6;6;6
55043;PMS5003;54902;50.420;18.854;2023-06-24T00:52:02;6;6;6
55043;PMS5003;54902;50.420;18.854;2023-06-24T00:52:33;6;6;6
55043;PMS5003;54902;50.420;18.854;2023-06-24T00:53:09;6;6;6
55043;PMS5003;54902;50.420;18.854;2023-06-24T00:53:42;6;6;6
55043;PMS5003;54902;50.420;18.854;2023-06-24T00:54:13;6;6;6
55043;PMS5003;54902;50.420;18.854;2023-06-24T00:54:44;6;6;6
55043;PMS5003;54902;50.420;18.854;2023-06-24T00:55:15;6;6;6
55043;PMS5003;54902;50.420;18.854;2023-06-24T00:55:48;6;6;6
55043;PMS5003;54902;50.420;18.854;2023-06-24T00:56:19;6;6;6
55043;PMS5003;54902;50.420;18.854;2023-06-24T00:56:52;6;6;6
55043;PMS5003;54902;50.420;18.854;2023-06-24T00:57:25;6;6;6
55043;PMS5003;54902;50.420;18.854;2023-06-24T00:57:56;6;6;6
55043;PMS5003;54902;50.420;18.854;2023-06-24T00:58:31;6;6;6
55043;PMS5003;54902;50.420;18.854;2023-06-24T00:59:04;6;6;6
55043;PMS5003;54902;50.420;18.854;2023-06-24T00:59:38;6;6;6
55043;PMS5003;54902;50.420;18.854;2023-06-24T01:00:13;6;6;6
55043;PMS5003;54902;50.420;18.854;2023-06-24T01:00:48;6;6;6
55043;PMS5003;54902;50.420;18.854;2023-06-24T01:01:34;6;6;6
55043;PMS5003;54902;50.420;18.854;2023-06-24T01:02:06;6;6;6
55043;PMS5003;54902;50.420;18.854;2023-06-24T01:02:37;6;6;6
55043;PMS5003;54902;50.420;18.854;2023-06-24T01:03:09;6;6;6
55043;PMS5003;54902;50.420;18.854;2023-06-24T01:03:43;6;6;6
55043;PMS5003;54902;50.420;18.854;2023-06-24T01:04:15;6;6;6
55043;PMS5003;54902;50.420;18.854;2023-06-24T01:04:47;6;6;6
55043;PMS5003;54902;50.420;18.854;2023-06-24T01:05:20;6;6;5
55043;PMS5003;54902;50.420;18.854;2023-06-24T01:05:54;6;6;5
55043;PMS5003;54902;50.420;18.854;2023-06-24T01:06:25;6;6;5
55043;PMS5003;54902;50.420;18.854;2023-06-24T01:07:00;6;6;5
55043;PMS5003;54902;50.420;18.854;2023-06-24T01:07:31;6;6;5
55043;PMS5003;54902;50.420;18.854;2023-06-24T01:08:03;6;6;5
55043;PMS5003;54902;50.420;18.854;2023-06-24T01:08:34;4;4;2
55043;PMS5003;54902;50.420;18.854;2023-06-24T01:09:05;4;4;2
55043;PMS5003;54902;50.420;18.854;2023-06-24T01:09:37;4;4;2
55043;PMS5003;54902;50.420;18.854;2023-06-24T01:10:08;4;4;2
55043;PMS5003;54902;50.420;18.854;2023-06-24T01:10:42;2;2;1
55043;PMS5003;54902;50.420;18.854;2023-06-24T01:11:13;2;2;1
55043;PMS5003;54902;50.420;18.854;2023-06-24T01:11:44;2;2;1
55043;PMS5003;54902;50.420;18.854;2023-06-24T01:12:15;2;2;1
55043;PMS5003;54902;50.420;18.854;2023-06-24T01:12:46;2;2;1
55043;PMS5003;54902;50.420;18.854;2023-06-24T01:13:17;2;2;1
55043;PMS5003;54902;50.420;18.854;2023-06-24T01:13:48;2;2;1
55043;PMS5003;54902;50.420;18.854;2023-06-24T01:14:19;2;2;1
55043;PMS5003;54902;50.420;18.854;2023-06-24T01:14:53;2;2;1
55043;PMS5003;54902;50.420;18.854;2023-06-24T01:15:25;2;2;1
55043;PMS5003;54902;50.420;18.854;2023-06-24T01:16:00;3;3;1
55043;PMS5003;54902;50.420;18.854;2023-06-24T01:17:23;3;3;1
55043;PMS5003;54902;50.420;18.854;2023-06-24T01:17:24;3;3;1
55043;PMS5003;54902;50.420;18.854;2023-06-24T01:18:05;3;3;1
55043;PMS5003;54902;50.420;18.854;2023-06-24T01:18:46;3;3;1
55043;PMS5003;54902;50.420;18.854;2023-06-24T01:20:10;3;3;1
55043;PMS5003;54902;50.420;18.854;2023-06-24T01:21:48;3;3;1
55043;PMS5003;54902;50.420;18.854;2023-06-24T01:22:23;3;3;1
55043;PMS5003;54902;50.420;18.854;2023-06-24T01:23:01;3;3;1
55043;PMS5003;54902;50.420;18.854;2023-06-24T01:23:42;3;3;1
55043;PMS5003;54902;50.420;18.854;2023-06-24T01:26:37;3;3;1
55043;PMS5003;54902;50.420;18.854;2023-06-24T01:29:36;3;3;2
55043;PMS5003;54902;50.420;18.854;2023-06-24T01:30:11;3;3;3
55043;PMS5003;54902;50.420;18.854;2023-06-24T01:33:07;6;6;5
55043;PMS5003;54902;50.420;18.854;2023-06-24T01:33:46;6;6;5
55043;PMS5003;54902;50.420;18.854;2023-06-24T01:34:24;6;6;5
55043;PMS5003;54902;50.420;18.854;2023-06-24T01:35:00;6;6;5
55043;PMS5003;54902;50.420;18.854;2023-06-24T01:35:36;6;6;5
55043;PMS5003;54902;50.420;18.854;2023-06-24T01:36:11;6;6;5
55043;PMS5003;54902;50.420;18.854;2023-06-24T01:36:46;7;7;7
55043;PMS5003;54902;50.420;18.854;2023-06-24T01:38:15;7;7;7
55043;PMS5003;54902;50.420;18.854;2023-06-24T01:38:58;7;7;7
55043;PMS5003;54902;50.420;18.854;2023-06-24T01:39:33;7;7;7
55043;PMS5003;54902;50.420;18.854;2023-06-24T01:40:20;7;7;7
55043;PMS5003;54902;50.420;18.854;2023-06-24T01:40:57;7;7;7
55043;PMS5003;54902;50.420;18.854;2023-06-24T01:41:34;7;7;7
55043;PMS5003;54902;50.420;18.854;2023-06-24T01:42:11;7;7;7
55043;PMS5003;54902;50.420;18.854;2023-06-24T01:42:46;7;7;7
55043;PMS5003;54902;50.420;18.854;2023-06-24T01:43:19;5;5;4
55043;PMS5003;54902;50.420;18.854;2023-06-24T01:43:53;5;5;4
55043;PMS5003;54902;50.420;18.854;2023-06-24T01:44:27;5;5;4
55043;PMS5003;54902;50.420;18.854;2023-06-24T01:44:59;5;5;4
55043;PMS5003;54902;50.420;18.854;2023-06-24T01:45:37;5;5;4
55043;PMS5003;54902;50.420;18.854;2023-06-24T01:46:10;5;5;4
55043;PMS5003;54902;50.420;18.854;2023-06-24T01:46:46;5;5;4
55043;PMS5003;54902;50.420;18.854;2023-06-24T01:47:20;5;5;4
55043;PMS5003;54902;50.420;18.854;2023-06-24T01:48:36;5;5;4
55043;PMS5003;54902;50.420;18.854;2023-06-24T01:49:12;6;6;6
55043;PMS5003;54902;50.420;18.854;2023-06-24T01:49:46;6;6;6
55043;PMS5003;54902;50.420;18.854;2023-06-24T01:50:20;6;6;6
55043;PMS5003;54902;50.420;18.854;2023-06-24T01:51:36;6;6;6
55043;PMS5003;54902;50.420;18.854;2023-06-24T01:52:11;6;6;6
55043;PMS5003;54902;50.420;18.854;2023-06-24T01:52:43;6;6;6
55043;PMS5003;54902;50.420;18.854;2023-06-24T01:53:16;6;6;6
55043;PMS5003;54902;50.420;18.854;2023-06-24T01:53:58;6;6;6
55043;PMS5003;54902;50.420;18.854;2023-06-24T01:54:33;6;6;6
55043;PMS5003;54902;50.420;18.854;2023-06-24T01:55:07;6;6;6
55043;PMS5003;54902;50.420;18.854;2023-06-24T01:55:41;8;8;7
55043;PMS5003;54902;50.420;18.854;2023-06-24T01:56:15;8;8;7
55043;PMS5003;54902;50.420;18.854;2023-06-24T01:56:47;8;8;7
55043;PMS5003;54902;50.420;18.854;2023-06-24T01:57:22;8;8;7
55043;PMS5003;54902;50.420;18.854;2023-06-24T01:57:54;8;8;7
55043;PMS5003;54902;50.420;18.854;2023-06-24T01:58:28;8;8;7
55043;PMS5003;54902;50.420;18.854;2023-06-24T01:59:02;8;8;7
55043;PMS5003;54902;50.420;18.854;2023-06-24T01:59:37;8;8;7
55043;PMS5003;54902;50.420;18.854;2023-06-24T02:00:11;8;8;7
55043;PMS5003;54902;50.420;18.854;2023-06-24T02:00:43;13;13;10
55043;PMS5003;54902;50.420;18.854;2023-06-24T02:01:14;13;13;10
55043;PMS5003;54902;50.420;18.854;2023-06-24T02:01:46;13;13;10
55043;PMS5003;54902;50.420;18.854;2023-06-24T02:02:18;13;13;10
55043;PMS5003;54902;50.420;18.854;2023-06-24T02:02:50;13;13;10
55043;PMS5003;54902;50.420;18.854;2023-06-24T02:03:23;8;8;7
55043;PMS5003;54902;50.420;18.854;2023-06-24T02:03:56;8;8;7
55043;PMS5003;54902;50.420;18.854;2023-06-24T02:04:29;8;8;7
55043;PMS5003;54902;50.420;18.854;2023-06-24T02:05:02;8;8;7
55043;PMS5003;54902;50.420;18.854;2023-06-24T02:05:36;5;5;5
55043;PMS5003;54902;50.420;18.854;2023-06-24T02:06:10;6;6;4
55043;PMS5003;54902;50.420;18.854;2023-06-24T02:06:44;6;6;4
55043;PMS5003;54902;50.420;18.854;2023-06-24T02:07:16;6;6;4
55043;PMS5003;54902;50.420;18.854;2023-06-24T02:07:50;6;6;4
55043;PMS5003;54902;50.420;18.854;2023-06-24T02:08:23;6;6;4
55043;PMS5003;54902;50.420;18.854;2023-06-24T02:08:56;6;6;4
55043;PMS5003;54902;50.420;18.854;2023-06-24T02:09:29;6;6;4
55043;PMS5003;54902;50.420;18.854;2023-06-24T02:10:03;6;6;4
55043;PMS5003;54902;50.420;18.854;2023-06-24T02:10:38;6;6;4
55043;PMS5003;54902;50.420;18.854;2023-06-24T02:11:10;6;6;4
55043;PMS5003;54902;50.420;18.854;2023-06-24T02:11:44;5;5;3
55043;PMS5003;54902;50.420;18.854;2023-06-24T02:12:14;5;5;3
55043;PMS5003;54902;50.420;18.854;2023-06-24T02:12:47;5;5;3
55043;PMS5003;54902;50.420;18.854;2023-06-24T02:13:21;6;6;5
55043;PMS5003;54902;50.420;18.854;2023-06-24T02:13:53;6;6;5
55043;PMS5003;54902;50.420;18.854;2023-06-24T02:14:26;6;6;5
55043;PMS5003;54902;50.420;18.854;2023-06-24T02:14:59;6;6;5
55043;PMS5003;54902;50.420;18.854;2023-06-24T02:15:32;6;6;5
55043;PMS5003;54902;50.420;18.854;2023-06-24T02:16:06;6;6;5
55043;PMS5003;54902;50.420;18.854;2023-06-24T02:16:39;6;6;5
55043;PMS5003;54902;50.420;18.854;2023-06-24T02:17:12;8;8;6
55043;PMS5003;54902;50.420;18.854;2023-06-24T02:17:45;8;8;6
55043;PMS5003;54902;50.420;18.854;2023-06-24T02:18:20;8;8;6
55043;PMS5003;54902;50.420;18.854;2023-06-24T02:18:53;8;8;6
55043;PMS5003;54902;50.420;18.854;2023-06-24T02:19:27;8;8;6
55043;PMS5003;54902;50.420;18.854;2023-06-24T02:20:01;8;8;6
55043;PMS5003;54902;50.420;18.854;2023-06-24T02:20:35;8;8;6
55043;PMS5003;54902;50.420;18.854;2023-06-24T02:21:09;8;8;6
55043;PMS5003;54902;50.420;18.854;2023-06-24T02:21:41;8;8;6
55043;PMS5003;54902;50.420;18.854;2023-06-24T02:22:13;8;8;6
55043;PMS5003;54902;50.420;18.854;2023-06-24T02:22:46;5;5;4
55043;PMS5003;54902;50.420;18.854;2023-06-24T02:23:17;5;5;4
55043;PMS5003;54902;50.420;18.854;2023-06-24T02:23:51;5;5;4
55043;PMS5003;54902;50.420;18.854;2023-06-24T02:24:23;5;5;4
55043;PMS5003;54902;50.420;18.854;2023-06-24T02:24:54;5;5;4
55043;PMS5003;54902;50.420;18.854;2023-06-24T02:25:27;5;5;4
55043;PMS5003;54902;50.420;18.854;2023-06-24T02:25:58;5;5;4
55043;PMS5003;54902;50.420;18.854;2023-06-24T02:26:32;5;5;4
55043;PMS5003;54902;50.420;18.854;2023-06-24T02:27:05;5;5;4
55043;PMS5003;54902;50.420;18.854;2023-06-24T02:27:37;5;5;4
55043;PMS5003;54902;50.420;18.854;2023-06-24T02:28:09;7;7;6
55043;PMS5003;54902;50.420;18.854;2023-06-24T02:28:41;7;7;6
55043;PMS5003;54902;50.420;18.854;2023-06-24T02:29:15;7;7;6
55043;PMS5003;54902;50.420;18.854;2023-06-24T02:29:48;7;7;6
55043;PMS5003;54902;50.420;18.854;2023-06-24T02:30:21;7;7;6
55043;PMS5003;54902;50.420;18.854;2023-06-24T02:30:54;7;7;6
55043;PMS5003;54902;50.420;18.854;2023-06-24T02:31:25;7;7;6
55043;PMS5003;54902;50.420;18.854;2023-06-24T02:31:56;7;7;6
55043;PMS5003;54902;50.420;18.854;2023-06-24T02:32:26;7;7;6
55043;PMS5003;54902;50.420;18.854;2023-06-24T02:32:58;7;7;6
55043;PMS5003;54902;50.420;18.854;2023-06-24T02:33:29;7;7;6
55043;PMS5003;54902;50.420;18.854;2023-06-24T02:34:00;7;7;6
55043;PMS5003;54902;50.420;18.854;2023-06-24T02:34:31;7;7;6
55043;PMS5003;54902;50.420;18.854;2023-06-24T02:35:02;4;4;3
55043;PMS5003;54902;50.420;18.854;2023-06-24T02:35:33;4;4;3
55043;PMS5003;54902;50.420;18.854;2023-06-24T02:36:04;4;4;3
55043;PMS5003;54902;50.420;18.854;2023-06-24T02:36:36;4;4;3
55043;PMS5003;54902;50.420;18.854;2023-06-24T02:37:07;4;4;3
55043;PMS5003;54902;50.420;18.854;2023-06-24T02:37:39;4;4;3
55043;PMS5003;54902;50.420;18.854;2023-06-24T02:38:10;4;4;3
55043;PMS5003;54902;50.420;18.854;2023-06-24T02:38:41;3;3;2
55043;PMS5003;54902;50.420;18.854;2023-06-24T02:39:12;3;3;2
55043;PMS5003;54902;50.420;18.854;2023-06-24T02:39:43;3;3;2
55043;PMS5003;54902;50.420;18.854;2023-06-24T02:40:14;3;3;2
55043;PMS5003;54902;50.420;18.854;2023-06-24T02:40:45;3;3;2
55043;PMS5003;54902;50.420;18.854;2023-06-24T02:41:16;6;6;5
55043;PMS5003;54902;50.420;18.854;2023-06-24T02:41:47;6;6;5
55043;PMS5003;54902;50.420;18.854;2023-06-24T02:42:19;6;6;5
55043;PMS5003;54902;50.420;18.854;2023-06-24T02:42:50;6;6;5
55043;PMS5003;54902;50.420;18.854;2023-06-24T02:43:21;6;6;5
55043;PMS5003;54902;50.420;18.854;2023-06-24T02:43:52;9;9;8
55043;PMS5003;54902;50.420;18.854;2023-06-24T02:44:23;9;9;8
55043;PMS5003;54902;50.420;18.854;2023-06-24T02:44:54;9;9;8
55043;PMS5003;54902;50.420;18.854;2023-06-24T02:45:25;9;9;8
55043;PMS5003;54902;50.420;18.854;2023-06-24T02:45:59;9;9;8
55043;PMS5003;54902;50.420;18.854;2023-06-24T02:46:32;9;9;8
55043;PMS5003;54902;50.420;18.854;2023-06-24T02:47:07;9;9;8
55043;PMS5003;54902;50.420;18.854;2023-06-24T02:47:43;9;9;8
55043;PMS5003;54902;50.420;18.854;2023-06-24T02:48:16;9;9;8
55043;PMS5003;54902;50.420;18.854;2023-06-24T02:48:49;9;9;8
55043;PMS5003;54902;50.420;18.854;2023-06-24T02:49:22;10;10;9
55043;PMS5003;54902;50.420;18.854;2023-06-24T02:49:54;10;10;9
55043;PMS5003;54902;50.420;18.854;2023-06-24T02:50:28;10;10;9
55043;PMS5003;54902;50.420;18.854;2023-06-24T02:50:59;10;10;9
55043;PMS5003;54902;50.420;18.854;2023-06-24T02:51:33;10;10;9
55043;PMS5003;54902;50.420;18.854;2023-06-24T02:52:05;10;10;9
55043;PMS5003;54902;50.420;18.854;2023-06-24T02:52:36;10;10;9
55043;PMS5003;54902;50.420;18.854;2023-06-24T02:53:09;10;10;9
55043;PMS5003;54902;50.420;18.854;2023-06-24T02:53:45;10;10;9
55043;PMS5003;54902;50.420;18.854;2023-06-24T02:54:18;10;10;9
55043;PMS5003;54902;50.420;18.854;2023-06-24T02:54:49;10;10;9
55043;PMS5003;54902;50.420;18.854;2023-06-24T02:55:20;10;10;9
55043;PMS5003;54902;50.420;18.854;2023-06-24T02:55:52;9;9;7
55043;PMS5003;54902;50.420;18.854;2023-06-24T02:56:25;9;9;7
55043;PMS5003;54902;50.420;18.854;2023-06-24T02:56:58;9;9;7
55043;PMS5003;54902;50.420;18.854;2023-06-24T02:57:30;9;9;7
55043;PMS5003;54902;50.420;18.854;2023-06-24T02:58:03;10;10;7
55043;PMS5003;54902;50.420;18.854;2023-06-24T02:58:38;10;10;7
55043;PMS5003;54902;50.420;18.854;2023-06-24T02:59:10;10;10;7
55043;PMS5003;54902;50.420;18.854;2023-06-24T02:59:41;10;10;7
55043;PMS5003;54902;50.420;18.854;2023-06-24T03:00:13;5;5;5
55043;PMS5003;54902;50.420;18.854;2023-06-24T03:00:45;5;5;5
55043;PMS5003;54902;50.420;18.854;2023-06-24T03:01:16;5;5;5
55043;PMS5003;54902;50.420;18.854;2023-06-24T03:01:47;5;5;5
55043;PMS5003;54902;50.420;18.854;2023-06-24T03:02:19;5;5;5
55043;PMS5003;54902;50.420;18.854;2023-06-24T03:02:52;6;6;5
55043;PMS5003;54902;50.420;18.854;2023-06-24T03:03:23;6;6;5
55043;PMS5003;54902;50.420;18.854;2023-06-24T03:03:57;6;6;5
55043;PMS5003;54902;50.420;18.854;2023-06-24T03:04:28;6;6;5
55043;PMS5003;54902;50.420;18.854;2023-06-24T03:04:59;6;6;5
55043;PMS5003;54902;50.420;18.854;2023-06-24T03:05:32;7;7;6
55043;PMS5003;54902;50.420;18.854;2023-06-24T03:06:04;7;7;6
55043;PMS5003;54902;50.420;18.854;2023-06-24T03:06:36;7;7;6
55043;PMS5003;54902;50.420;18.854;2023-06-24T03:07:10;7;7;6
55043;PMS5003;54902;50.420;18.854;2023-06-24T03:07:41;7;7;6
55043;PMS5003;54902;50.420;18.854;2023-06-24T03:08:13;7;7;6
55043;PMS5003;54902;50.420;18.854;2023-06-24T03:08:45;7;7;6
55043;PMS5003;54902;50.420;18.854;2023-06-24T03:09:16;7;7;6
55043;PMS5003;54902;50.420;18.854;2023-06-24T03:09:48;7;7;6
55043;PMS5003;54902;50.420;18.854;2023-06-24T03:10:19;7;7;6
55043;PMS5003;54902;50.420;18.854;2023-06-24T03:11:28;9;9;7
55043;PMS5003;54902;50.420;18.854;2023-06-24T03:11:59;9;9;7
55043;PMS5003;54902;50.420;18.854;2023-06-24T03:12:30;9;9;7
55043;PMS5003;54902;50.420;18.854;2023-06-24T03:13:01;9;9;7
55043;PMS5003;54902;50.420;18.854;2023-06-24T03:13:32;9;9;7
55043;PMS5003;54902;50.420;18.854;2023-06-24T03:14:03;9;9;7
55043;PMS5003;54902;50.420;18.854;2023-06-24T03:14:34;9;9;7
55043;PMS5003;54902;50.420;18.854;2023-06-24T03:15:05;9;9;7
55043;PMS5003;54902;50.420;18.854;2023-06-24T03:15:36;9;9;7
55043;PMS5003;54902;50.420;18.854;2023-06-24T03:16:07;9;9;7
55043;PMS5003;54902;50.420;18.854;2023-06-24T03:16:42;9;9;7
55043;PMS5003;54902;50.420;18.854;2023-06-24T03:17:13;9;9;7
55043;PMS5003;54902;50.420;18.854;2023-06-24T03:17:45;9;9;7
55043;PMS5003;54902;50.420;18.854;2023-06-24T03:18:16;9;9;7
55043;PMS5003;54902;50.420;18.854;2023-06-24T03:18:48;9;9;7
55043;PMS5003;54902;50.420;18.854;2023-06-24T03:19:19;9;9;7
55043;PMS5003;54902;50.420;18.854;2023-06-24T03:19:50;9;9;7
55043;PMS5003;54902;50.420;18.854;2023-06-24T03:20:21;9;9;7
55043;PMS5003;54902;50.420;18.854;2023-06-24T03:20:53;9;9;7
55043;PMS5003;54902;50.420;18.854;2023-06-24T03:21:24;9;9;7
55043;PMS5003;54902;50.420;18.854;2023-06-24T03:21:58;9;9;7
55043;PMS5003;54902;50.420;18.854;2023-06-24T03:22:29;9;9;7
55043;PMS5003;54902;50.420;18.854;2023-06-24T03:23:00;9;9;7
55043;PMS5003;54902;50.420;18.854;2023-06-24T03:23:31;9;9;7
55043;PMS5003;54902;50.420;18.854;2023-06-24T03:24:02;9;9;7
55043;PMS5003;54902;50.420;18.854;2023-06-24T03:24:34;9;9;7
55043;PMS5003;54902;50.420;18.854;2023-06-24T03:25:05;9;9;7
55043;PMS5003;54902;50.420;18.854;2023-06-24T03:25:36;13;12;9
55043;PMS5003;54902;50.420;18.854;2023-06-24T03:26:07;13;12;9
55043;PMS5003;54902;50.420;18.854;2023-06-24T03:26:39;39;35;23
55043;PMS5003;54902;50.420;18.854;2023-06-24T03:27:13;39;35;23
55043;PMS5003;54902;50.420;18.854;2023-06-24T03:27:44;39;35;23
55043;PMS5003;54902;50.420;18.854;2023-06-24T03:28:14;39;35;23
55043;PMS5003;54902;50.420;18.854;2023-06-24T03:28:45;39;35;23
55043;PMS5003;54902;50.420;18.854;2023-06-24T03:29:17;39;35;23
55043;PMS5003;54902;50.420;18.854;2023-06-24T03:29:47;39;35;23
55043;PMS5003;54902;50.420;18.854;2023-06-24T03:30:18;39;35;23
55043;PMS5003;54902;50.420;18.854;2023-06-24T03:30:49;39;36;24
55043;PMS5003;54902;50.420;18.854;2023-06-24T03:31:20;39;36;24
55043;PMS5003;54902;50.420;18.854;2023-06-24T03:31:53;22;22;13
55043;PMS5003;54902;50.420;18.854;2023-06-24T03:32:24;22;22;13
55043;PMS5003;54902;50.420;18.854;2023-06-24T03:32:55;22;22;13
55043;PMS5003;54902;50.420;18.854;2023-06-24T03:33:27;22;22;13
55043;PMS5003;54902;50.420;18.854;2023-06-24T03:33:58;22;22;13
55043;PMS5003;54902;50.420;18.854;2023-06-24T03:34:29;22;22;13
55043;PMS5003;54902;50.420;18.854;2023-06-24T03:35:00;22;22;13
55043;PMS5003;54902;50.420;18.854;2023-06-24T03:35:31;22;22;13
55043;PMS5003;54902;50.420;18.854;2023-06-24T03:36:03;22;22;13
55043;PMS5003;54902;50.420;18.854;2023-06-24T03:36:34;22;22;13
55043;PMS5003;54902;50.420;18.854;2023-06-24T03:37:08;28;28;18
55043;PMS5003;54902;50.420;18.854;2023-06-24T03:37:39;28;28;18
55043;PMS5003;54902;50.420;18.854;2023-06-24T03:38:10;28;28;18
55043;PMS5003;54902;50.420;18.854;2023-06-24T03:38:42;28;28;18
55043;PMS5003;54902;50.420;18.854;2023-06-24T03:39:13;28;28;18
55043;PMS5003;54902;50.420;18.854;2023-06-24T03:39:43;28;28;18
55043;PMS5003;54902;50.420;18.854;2023-06-24T03:40:14;28;28;18
55043;PMS5003;54902;50.420;18.854;2023-06-24T03:40:45;28;28;18
55043;PMS5003;54902;50.420;18.854;2023-06-24T03:41:17;28;28;18
55043;PMS5003;54902;50.420;18.854;2023-06-24T03:41:48;28;28;18
55043;PMS5003;54902;50.420;18.854;2023-06-24T03:42:19;28;28;18
55043;PMS5003;54902;50.420;18.854;2023-06-24T03:42:50;19;19;12
55043;PMS5003;54902;50.420;18.854;2023-06-24T03:43:21;19;19;12
55043;PMS5003;54902;50.420;18.854;2023-06-24T03:43:52;19;19;12
55043;PMS5003;54902;50.420;18.854;2023-06-24T03:44:23;19;19;12
55043;PMS5003;54902;50.420;18.854;2023-06-24T03:44:54;19;19;12
55043;PMS5003;54902;50.420;18.854;2023-06-24T03:45:25;19;19;12
55043;PMS5003;54902;50.420;18.854;2023-06-24T03:45:56;19;19;12
55043;PMS5003;54902;50.420;18.854;2023-06-24T03:46:27;19;19;12
55043;PMS5003;54902;50.420;18.854;2023-06-24T03:47:03;19;19;12